Time;durP1;ratioP1;P1;durP2;ratioP2;P2;SDS_P1;SDS_P2;PMS_P1;PMS_P2;Temp;Humidity;BMP_temperature;BMP_pressure;BME280_temperature;BME280_humidity;BME280_pressure;Samples;Min_cycle;Max_cycle;Signal;HPM_P1;HPM_P2
2021/12/25 00:00:08;;;;;;;0.40;0.40;;;;;;;;;;4993180;28;20248;-67
2021/12/25 00:02:35;;;;;;;0.50;0.50;;;;;;;;;;4993252;28;20459;-65
2021/12/25 00:05:01;;;;;;;0.40;0.40;;;;;;;;;;4993599;28;20170;-65
2021/12/25 00:07:27;;;;;;;0.40;0.40;;;;;;;;;;4993014;28;20610;-65
2021/12/25 00:09:53;;;;;;;0.40;0.40;;;;;;;;;;4992581;28;20464;-64
2021/12/25 00:12:19;;;;;;;0.50;0.50;;;;;;;;;;4992626;28;20492;-66
2021/12/25 00:14:45;;;;;;;0.40;0.40;;;;;;;;;;4992865;28;20280;-65
2021/12/25 00:17:11;;;;;;;0.40;0.40;;;;;;;;;;4992989;28;20420;-66
2021/12/25 00:19:37;;;;;;;0.40;0.40;;;;;;;;;;4992754;28;20479;-66
2021/12/25 00:22:03;;;;;;;0.40;0.40;;;;;;;;;;4992183;28;20413;-65
2021/12/25 00:24:29;;;;;;;0.40;0.40;;;;;;;;;;4991456;28;20429;-66
2021/12/25 00:27:05;;;;;;;0.40;0.40;;;;;;;;;;4992943;28;20179;-66
2021/12/25 00:29:54;;;;;;;0.40;0.40;;;;;;;;;;4992679;28;20472;-67
2021/12/25 00:34:46;;;;;;;0.50;0.50;;;;;;;;;;4992606;28;20316;-64
2021/12/25 00:37:12;;;;;;;0.40;0.40;;;;;;;;;;4991397;28;20919;-64
2021/12/25 00:39:38;;;;;;;0.40;0.40;;;;;;;;;;4992436;28;20449;-65
2021/12/25 00:42:05;;;;;;;0.50;0.50;;;;;;;;;;4990656;28;20413;-65
2021/12/25 00:44:32;;;;;;;0.40;0.40;;;;;;;;;;4992278;28;20444;-67
2021/12/25 00:46:58;;;;;;;0.40;0.40;;;;;;;;;;4992550;28;20205;-66
2021/12/25 00:49:24;;;;;;;0.40;0.40;;;;;;;;;;4992089;28;20237;-66
2021/12/25 00:51:50;;;;;;;0.43;0.43;;;;;;;;;;4991981;28;20995;-67
2021/12/25 00:54:16;;;;;;;0.50;0.50;;;;;;;;;;4998527;28;20178;-67
2021/12/25 00:56:42;;;;;;;0.40;0.40;;;;;;;;;;5012075;28;20220;-66
2021/12/25 00:59:09;;;;;;;0.50;0.50;;;;;;;;;;4999332;28;20856;-67
2021/12/25 01:01:35;;;;;;;0.40;0.40;;;;;;;;;;4991656;28;20233;-66
2021/12/25 01:04:01;;;;;;;0.50;0.50;;;;;;;;;;4991913;28;20183;-64
2021/12/25 01:06:27;;;;;;;0.40;0.40;;;;;;;;;;4992158;28;20174;-66
2021/12/25 01:08:53;;;;;;;0.40;0.40;;;;;;;;;;4991769;28;20519;-64
2021/12/25 01:11:19;;;;;;;0.40;0.40;;;;;;;;;;4991054;28;20182;-66
2021/12/25 01:13:53;;;;;;;0.40;0.40;;;;;;;;;;4990571;28;20765;-65
2021/12/25 01:16:57;;;;;;;0.40;0.40;;;;;;;;;;4988312;28;20183;-66
2021/12/25 01:48:15;;;;;;;0.40;0.40;;;;;;;;;;4985937;28;20217;-66
2021/12/25 01:50:41;;;;;;;0.40;0.40;;;;;;;;;;4976352;28;20570;-66
2021/12/25 01:53:07;;;;;;;0.40;0.40;;;;;;;;;;4984752;28;20175;-66
2021/12/25 01:55:33;;;;;;;0.40;0.40;;;;;;;;;;4986158;28;20839;-66
2021/12/25 01:58:01;;;;;;;0.40;0.40;;;;;;;;;;4985856;28;20435;-66
2021/12/25 02:00:29;;;;;;;0.40;0.40;;;;;;;;;;4991681;28;21007;-66
2021/12/25 02:02:55;;;;;;;0.40;0.40;;;;;;;;;;5002123;28;20177;-66
2021/12/25 02:05:21;;;;;;;0.50;0.50;;;;;;;;;;5004589;28;20197;-66
2021/12/25 02:07:47;;;;;;;0.40;0.40;;;;;;;;;;4993585;28;20182;-66
2021/12/25 02:10:14;;;;;;;0.50;0.50;;;;;;;;;;5008420;23;20491;-62
2021/12/25 02:12:43;;;;;;;0.40;0.40;;;;;;;;;;4991278;28;20205;-61
2021/12/25 02:15:15;;;;;;;0.40;0.40;;;;;;;;;;4989343;28;20178;-61
2021/12/25 02:20:35;;;;;;;0.40;0.40;;;;;;;;;;4984478;28;20210;-62
2021/12/25 02:23:04;;;;;;;0.40;0.40;;;;;;;;;;4977675;28;20258;-61
2021/12/25 02:25:34;;;;;;;0.43;0.43;;;;;;;;;;4975806;28;20261;-61
2021/12/25 02:28:01;;;;;;;0.40;0.40;;;;;;;;;;4984137;28;20198;-61
2021/12/25 02:30:28;;;;;;;0.40;0.40;;;;;;;;;;4967448;28;20209;-61
2021/12/25 02:32:54;;;;;;;0.40;0.40;;;;;;;;;;4967024;28;20176;-61
2021/12/25 02:35:20;;;;;;;0.40;0.40;;;;;;;;;;4966377;28;20180;-61
2021/12/25 02:37:46;;;;;;;0.40;0.40;;;;;;;;;;4977288;28;20503;-61
2021/12/25 02:40:14;;;;;;;0.43;0.43;;;;;;;;;;4972474;28;20199;-61
2021/12/25 02:42:40;;;;;;;0.40;0.40;;;;;;;;;;4975148;28;20174;-63
2021/12/25 02:45:07;;;;;;;0.40;0.40;;;;;;;;;;4975318;28;20175;-63
2021/12/25 02:47:36;;;;;;;0.40;0.40;;;;;;;;;;4973660;28;20431;-63
2021/12/25 02:50:02;;;;;;;0.40;0.40;;;;;;;;;;4975086;28;20571;-63
2021/12/25 02:52:28;;;;;;;0.40;0.40;;;;;;;;;;4974779;28;20179;-63
2021/12/25 02:54:53;;;;;;;0.40;0.40;;;;;;;;;;4975270;28;20422;-63
2021/12/25 02:57:19;;;;;;;0.40;0.40;;;;;;;;;;4974826;28;20438;-63
2021/12/25 02:59:45;;;;;;;0.40;0.40;;;;;;;;;;4975001;28;20434;-63
2021/12/25 03:02:13;;;;;;;0.40;0.40;;;;;;;;;;4972878;28;20454;-63
2021/12/25 03:04:40;;;;;;;0.40;0.40;;;;;;;;;;4975048;28;20619;-63
2021/12/25 03:07:07;;;;;;;0.40;0.40;;;;;;;;;;4974779;28;20237;-63
2021/12/25 03:09:33;;;;;;;0.40;0.40;;;;;;;;;;4974998;28;20228;-63
2021/12/25 03:11:59;;;;;;;0.40;0.40;;;;;;;;;;4974062;28;20183;-63
2021/12/25 03:14:36;;;;;;;0.40;0.40;;;;;;;;;;4974739;28;20174;-63
2021/12/25 03:17:02;;;;;;;0.40;0.40;;;;;;;;;;4974537;28;20187;-63
2021/12/25 03:19:32;;;;;;;0.40;0.40;;;;;;;;;;4974725;28;20206;-63
2021/12/25 03:21:59;;;;;;;0.40;0.40;;;;;;;;;;4973819;28;20190;-63
2021/12/25 03:24:25;;;;;;;0.40;0.40;;;;;;;;;;4974789;28;20175;-63
2021/12/25 03:26:54;;;;;;;0.50;0.50;;;;;;;;;;4974146;28;20225;-63
2021/12/25 03:29:21;;;;;;;0.40;0.40;;;;;;;;;;4974224;28;20238;-63
2021/12/25 03:31:47;;;;;;;0.40;0.40;;;;;;;;;;4973898;28;20171;-64
2021/12/25 03:34:13;;;;;;;0.40;0.40;;;;;;;;;;4974326;28;20180;-63
2021/12/25 03:36:39;;;;;;;0.40;0.40;;;;;;;;;;4974428;28;20755;-63
2021/12/25 03:39:06;;;;;;;0.40;0.40;;;;;;;;;;4974121;28;20419;-63
2021/12/25 03:41:32;;;;;;;0.40;0.40;;;;;;;;;;4973519;28;20498;-63
2021/12/25 03:43:58;;;;;;;0.40;0.40;;;;;;;;;;4974118;28;20281;-63
2021/12/25 03:46:24;;;;;;;0.50;0.50;;;;;;;;;;4974124;28;20551;-64
2021/12/25 03:59:13;;;;;;;0.40;0.40;;;;;;;;;;4954588;29;20295;-64
2021/12/25 04:04:15;;;;;;;0.40;0.40;;;;;;;;;;4974003;28;20190;-64
2021/12/25 04:06:50;;;;;;;0.40;0.40;;;;;;;;;;4973621;28;20171;-64
2021/12/25 04:09:25;;;;;;;0.40;0.40;;;;;;;;;;4973642;28;20581;-64
2021/12/25 04:11:52;;;;;;;0.40;0.40;;;;;;;;;;4972716;28;20174;-64
2021/12/25 04:14:18;;;;;;;0.40;0.40;;;;;;;;;;4973715;28;20202;-63
2021/12/25 04:16:44;;;;;;;0.37;0.37;;;;;;;;;;4973262;28;20178;-64
2021/12/25 04:19:10;;;;;;;0.40;0.40;;;;;;;;;;4973652;28;20407;-64
2021/12/25 04:21:37;;;;;;;0.40;0.40;;;;;;;;;;4972637;28;20518;-64
2021/12/25 04:24:03;;;;;;;0.40;0.40;;;;;;;;;;4973584;28;20714;-64
2021/12/25 04:26:29;;;;;;;0.40;0.40;;;;;;;;;;4973100;28;20206;-63
2021/12/25 04:31:59;;;;;;;0.43;0.43;;;;;;;;;;4972473;28;20199;-64
2021/12/25 04:49:10;;;;;;;0.40;0.40;;;;;;;;;;4973053;28;20217;-63
2021/12/25 05:02:23;;;;;;;0.40;0.40;;;;;;;;;;4972635;28;20266;-63
2021/12/25 05:04:55;;;;;;;0.40;0.40;;;;;;;;;;4960933;28;20175;-63
2021/12/25 05:07:21;;;;;;;0.40;0.40;;;;;;;;;;4972845;28;20663;-63
2021/12/25 05:09:47;;;;;;;0.40;0.40;;;;;;;;;;4971389;28;20217;-63
2021/12/25 05:12:13;;;;;;;0.40;0.40;;;;;;;;;;4969753;28;20187;-63
2021/12/25 05:14:39;;;;;;;0.40;0.40;;;;;;;;;;4972207;28;20790;-63
2021/12/25 05:17:06;;;;;;;0.40;0.40;;;;;;;;;;4970694;28;20958;-63
2021/12/25 05:19:32;;;;;;;0.40;0.40;;;;;;;;;;4972562;28;20426;-63
2021/12/25 05:21:59;;;;;;;0.40;0.40;;;;;;;;;;4972016;28;20591;-63
2021/12/25 05:24:27;;;;;;;0.40;0.40;;;;;;;;;;4972281;28;20202;-63
2021/12/25 05:26:56;;;;;;;0.40;0.40;;;;;;;;;;4972231;28;20651;-63
2021/12/25 05:29:24;;;;;;;0.40;0.40;;;;;;;;;;4972062;28;20217;-61
2021/12/25 05:31:51;;;;;;;0.50;0.50;;;;;;;;;;4971857;28;20163;-63
2021/12/25 05:34:17;;;;;;;0.40;0.40;;;;;;;;;;4972187;28;20270;-63
2021/12/25 05:36:42;;;;;;;0.40;0.40;;;;;;;;;;4972417;28;20623;-63
2021/12/25 05:39:09;;;;;;;0.40;0.40;;;;;;;;;;4972042;28;20431;-63
2021/12/25 05:41:35;;;;;;;0.40;0.40;;;;;;;;;;4971784;28;20415;-63
2021/12/25 05:44:01;;;;;;;0.40;0.40;;;;;;;;;;4972105;28;20197;-63
2021/12/25 05:46:27;;;;;;;0.40;0.40;;;;;;;;;;4971790;28;20191;-63
2021/12/25 05:48:53;;;;;;;0.40;0.40;;;;;;;;;;4972340;28;20462;-63
2021/12/25 05:51:20;;;;;;;0.40;0.40;;;;;;;;;;4971312;28;20522;-63
2021/12/25 05:53:46;;;;;;;0.40;0.40;;;;;;;;;;4972333;28;20845;-63
2021/12/25 05:56:12;;;;;;;0.47;0.47;;;;;;;;;;4971875;28;20175;-63
2021/12/25 05:58:38;;;;;;;0.47;0.47;;;;;;;;;;4972326;28;20194;-63
2021/12/25 06:01:04;;;;;;;0.50;0.50;;;;;;;;;;4971228;28;20251;-63
2021/12/25 06:03:31;;;;;;;0.40;0.40;;;;;;;;;;4972369;28;20457;-63
2021/12/25 06:05:57;;;;;;;0.40;0.40;;;;;;;;;;4970606;28;20179;-64
2021/12/25 06:08:23;;;;;;;0.50;0.50;;;;;;;;;;4952798;28;20192;-63
2021/12/25 06:10:49;;;;;;;0.50;0.50;;;;;;;;;;4965878;28;20215;-63
2021/12/25 06:13:19;;;;;;;0.50;0.50;;;;;;;;;;4971085;28;20183;-63
2021/12/25 06:15:46;;;;;;;0.40;0.40;;;;;;;;;;4971132;28;20172;-63
2021/12/25 06:18:12;;;;;;;0.40;0.40;;;;;;;;;;4970801;28;20253;-60
2021/12/25 06:20:38;;;;;;;0.45;0.45;;;;;;;;;;4971456;28;20294;-63
2021/12/25 06:23:04;;;;;;;0.40;0.40;;;;;;;;;;4973725;28;20183;-63
2021/12/25 06:25:31;;;;;;;0.40;0.40;;;;;;;;;;4974334;28;20718;-63
2021/12/25 06:27:57;;;;;;;0.40;0.40;;;;;;;;;;4974032;28;20457;-63
2021/12/25 06:30:23;;;;;;;0.40;0.40;;;;;;;;;;4973588;28;20726;-63
2021/12/25 06:32:49;;;;;;;0.40;0.40;;;;;;;;;;4973645;28;20195;-63
2021/12/25 06:35:15;;;;;;;0.40;0.40;;;;;;;;;;4974406;28;20425;-63
2021/12/25 06:37:44;;;;;;;0.40;0.40;;;;;;;;;;4973928;28;20706;-63
2021/12/25 06:40:11;;;;;;;0.40;0.40;;;;;;;;;;4972713;28;20439;-62
2021/12/25 06:42:37;;;;;;;0.40;0.40;;;;;;;;;;4973290;28;20198;-63
2021/12/25 06:45:04;;;;;;;0.50;0.50;;;;;;;;;;4974257;28;20275;-64
2021/12/25 06:47:30;;;;;;;0.40;0.40;;;;;;;;;;4973653;28;20179;-64
2021/12/25 06:49:56;;;;;;;0.40;0.40;;;;;;;;;;4973915;28;20211;-64
2021/12/25 06:52:22;;;;;;;0.40;0.40;;;;;;;;;;4973073;28;20175;-63
2021/12/25 06:54:48;;;;;;;0.40;0.40;;;;;;;;;;4973958;28;20270;-63
2021/12/25 06:57:14;;;;;;;0.40;0.40;;;;;;;;;;4972253;28;20422;-64
2021/12/25 06:59:40;;;;;;;0.40;0.40;;;;;;;;;;4973918;28;20214;-63
2021/12/25 07:02:06;;;;;;;0.40;0.40;;;;;;;;;;4972959;28;20187;-63
2021/12/25 07:04:32;;;;;;;0.40;0.40;;;;;;;;;;4973491;28;20434;-63
2021/12/25 07:06:58;;;;;;;0.40;0.40;;;;;;;;;;4973852;28;20810;-63
2021/12/25 07:09:24;;;;;;;0.50;0.50;;;;;;;;;;4937693;28;1039309;-63
2021/12/25 07:11:50;;;;;;;0.40;0.40;;;;;;;;;;4974473;28;20404;-64
2021/12/25 07:14:16;;;;;;;0.40;0.40;;;;;;;;;;4973887;28;20188;-63
2021/12/25 07:16:42;;;;;;;0.30;0.30;;;;;;;;;;4974565;28;20182;-63
2021/12/25 07:19:10;;;;;;;0.50;0.50;;;;;;;;;;4974373;28;20190;-63
2021/12/25 07:21:36;;;;;;;0.40;0.40;;;;;;;;;;4972658;28;20180;-63
2021/12/25 07:24:03;;;;;;;0.40;0.40;;;;;;;;;;4974456;28;20230;-63
2021/12/25 07:26:29;;;;;;;0.40;0.40;;;;;;;;;;4974270;28;20413;-64
2021/12/25 07:28:56;;;;;;;0.40;0.40;;;;;;;;;;4972958;28;20302;-63
2021/12/25 07:31:22;;;;;;;0.40;0.40;;;;;;;;;;4973488;28;20199;-63
2021/12/25 07:33:48;;;;;;;0.40;0.40;;;;;;;;;;4973079;28;20697;-65
2021/12/25 07:36:14;;;;;;;0.40;0.40;;;;;;;;;;4973188;28;20229;-65
2021/12/25 07:38:40;;;;;;;0.40;0.40;;;;;;;;;;4973373;28;20210;-64
2021/12/25 07:41:06;;;;;;;0.40;0.40;;;;;;;;;;4972853;28;20633;-64
2021/12/25 07:43:32;;;;;;;0.40;0.40;;;;;;;;;;4973596;28;20554;-64
2021/12/25 07:45:58;;;;;;;0.50;0.50;;;;;;;;;;4973363;28;20285;-64
2021/12/25 07:48:27;;;;;;;0.40;0.40;;;;;;;;;;4973051;28;20231;-64
2021/12/25 07:50:53;;;;;;;0.40;0.40;;;;;;;;;;4972537;28;20198;-64
2021/12/25 07:53:19;;;;;;;0.50;0.50;;;;;;;;;;4973628;28;20265;-64
2021/12/25 07:55:49;;;;;;;0.40;0.40;;;;;;;;;;4973253;28;20182;-64
2021/12/25 07:58:15;;;;;;;0.40;0.40;;;;;;;;;;4973108;28;20639;-64
2021/12/25 08:00:41;;;;;;;0.40;0.40;;;;;;;;;;4972297;28;20222;-64
2021/12/25 08:03:07;;;;;;;0.40;0.40;;;;;;;;;;4972688;28;20184;-64
2021/12/25 08:05:34;;;;;;;0.40;0.40;;;;;;;;;;4972222;28;20195;-64
2021/12/25 08:08:00;;;;;;;0.40;0.40;;;;;;;;;;4972742;28;20506;-64
2021/12/25 08:13:02;;;;;;;0.47;0.47;;;;;;;;;;5013813;23;20308;-64
2021/12/25 08:15:29;;;;;;;0.40;0.40;;;;;;;;;;4992398;28;20273;-64
2021/12/25 08:17:56;;;;;;;0.40;0.40;;;;;;;;;;4992606;28;20479;-64
2021/12/25 08:20:22;;;;;;;0.40;0.40;;;;;;;;;;4990319;28;20242;-64
2021/12/25 08:22:48;;;;;;;0.40;0.40;;;;;;;;;;4992941;28;20198;-64
2021/12/25 08:25:14;;;;;;;0.40;0.40;;;;;;;;;;4992811;28;20582;-63
2021/12/25 08:27:41;;;;;;;0.40;0.40;;;;;;;;;;4992627;28;20413;-64
2021/12/25 08:30:10;;;;;;;0.40;0.40;;;;;;;;;;4990024;28;20218;-64
2021/12/25 08:32:36;;;;;;;0.50;0.50;;;;;;;;;;4992621;28;20773;-64
2021/12/25 08:35:03;;;;;;;0.40;0.40;;;;;;;;;;4988428;28;20187;-64
2021/12/25 08:37:29;;;;;;;0.40;0.40;;;;;;;;;;4991900;28;20554;-64
2021/12/25 08:39:55;;;;;;;0.40;0.40;;;;;;;;;;4979312;28;21674;-63
2021/12/25 08:42:22;;;;;;;0.40;0.40;;;;;;;;;;4990553;28;20218;-64
2021/12/25 08:47:30;;;;;;;0.40;0.40;;;;;;;;;;4993255;28;20273;-64
2021/12/25 08:49:57;;;;;;;0.40;0.40;;;;;;;;;;4990395;28;20218;-63
2021/12/25 08:52:23;;;;;;;0.40;0.40;;;;;;;;;;4991363;28;20566;-64
2021/12/25 08:54:50;;;;;;;0.40;0.40;;;;;;;;;;4990751;28;20187;-64
2021/12/25 08:57:17;;;;;;;0.40;0.40;;;;;;;;;;4991935;28;20185;-64
2021/12/25 08:59:43;;;;;;;0.40;0.40;;;;;;;;;;4991604;28;20182;-64
2021/12/25 09:02:12;;;;;;;0.40;0.40;;;;;;;;;;4990868;28;20297;-64
2021/12/25 09:04:39;;;;;;;0.40;0.40;;;;;;;;;;4985829;28;20184;-64
2021/12/25 09:07:05;;;;;;;0.40;0.40;;;;;;;;;;4998929;28;20588;-64
2021/12/25 09:09:31;;;;;;;0.40;0.40;;;;;;;;;;4995516;28;20570;-64
2021/12/25 09:11:57;;;;;;;0.40;0.40;;;;;;;;;;4987940;28;20210;-64
2021/12/25 09:14:23;;;;;;;0.40;0.40;;;;;;;;;;4990054;28;20429;-64
2021/12/25 09:16:49;;;;;;;0.40;0.40;;;;;;;;;;4989381;28;20417;-64
2021/12/25 09:19:15;;;;;;;0.40;0.40;;;;;;;;;;4990866;28;20692;-64
2021/12/25 09:21:41;;;;;;;0.40;0.40;;;;;;;;;;4986298;28;20190;-63
2021/12/25 09:24:07;;;;;;;0.40;0.40;;;;;;;;;;4989331;28;20174;-63
2021/12/25 09:26:33;;;;;;;0.40;0.40;;;;;;;;;;4992818;28;20823;-62
2021/12/25 09:29:00;;;;;;;0.40;0.40;;;;;;;;;;4989297;28;20597;-63
2021/12/25 09:31:26;;;;;;;0.40;0.40;;;;;;;;;;4989322;28;20289;-62
2021/12/25 09:33:52;;;;;;;0.40;0.40;;;;;;;;;;4989438;28;20186;-61
2021/12/25 09:36:19;;;;;;;0.40;0.40;;;;;;;;;;4987011;28;20654;-60
2021/12/25 09:38:46;;;;;;;0.40;0.40;;;;;;;;;;4985785;28;20190;-61
2021/12/25 09:41:12;;;;;;;0.40;0.40;;;;;;;;;;4982526;28;20201;-63
2021/12/25 09:43:39;;;;;;;0.40;0.40;;;;;;;;;;4985480;28;20178;-63
2021/12/25 09:46:05;;;;;;;0.40;0.40;;;;;;;;;;4986543;28;20569;-63
2021/12/25 09:48:33;;;;;;;0.40;0.40;;;;;;;;;;4990380;28;20676;-63
2021/12/25 09:50:59;;;;;;;0.43;0.43;;;;;;;;;;4996408;28;20194;-62
2021/12/25 09:53:26;;;;;;;0.50;0.50;;;;;;;;;;4990045;28;20179;-63
2021/12/25 09:55:53;;;;;;;0.40;0.40;;;;;;;;;;4991120;28;20257;-62
2021/12/25 09:58:19;;;;;;;0.40;0.40;;;;;;;;;;4989069;28;20234;-62
2021/12/25 10:00:46;;;;;;;0.40;0.40;;;;;;;;;;4988496;28;20179;-62
2021/12/25 10:03:12;;;;;;;0.40;0.40;;;;;;;;;;4989418;28;20909;-62
2021/12/25 10:05:41;;;;;;;0.40;0.40;;;;;;;;;;4990133;28;20181;-62
2021/12/25 10:08:12;;;;;;;0.40;0.40;;;;;;;;;;4994656;28;20174;-62
2021/12/25 10:10:50;;;;;;;0.40;0.40;;;;;;;;;;4989881;28;20175;-64
2021/12/25 10:13:18;;;;;;;0.40;0.40;;;;;;;;;;4993957;28;20205;-65
2021/12/25 10:15:44;;;;;;;0.40;0.40;;;;;;;;;;4993940;28;20185;-62
2021/12/25 10:18:10;;;;;;;0.47;0.47;;;;;;;;;;4993675;28;20210;-63
2021/12/25 10:20:36;;;;;;;0.40;0.40;;;;;;;;;;4990751;28;20175;-62
2021/12/25 10:23:13;;;;;;;0.40;0.40;;;;;;;;;;4985031;28;20670;-63
2021/12/25 10:25:46;;;;;;;0.40;0.40;;;;;;;;;;4997168;28;20181;-63
2021/12/25 10:28:13;;;;;;;0.50;0.50;;;;;;;;;;4991228;28;20262;-62
2021/12/25 10:30:46;;;;;;;0.40;0.40;;;;;;;;;;4982518;28;20206;-63
2021/12/25 10:33:24;;;;;;;0.50;0.50;;;;;;;;;;4989131;28;20190;-63
2021/12/25 10:35:50;;;;;;;0.50;0.50;;;;;;;;;;4992115;28;20186;-63
2021/12/25 10:38:17;;;;;;;0.40;0.40;;;;;;;;;;4992859;28;20198;-63
2021/12/25 10:40:44;;;;;;;0.40;0.40;;;;;;;;;;4992200;28;20401;-63
2021/12/25 10:43:19;;;;;;;0.40;0.40;;;;;;;;;;4976214;28;20175;-63
2021/12/25 10:45:58;;;;;;;0.40;0.40;;;;;;;;;;4992803;28;20722;-63
2021/12/25 10:48:28;;;;;;;0.40;0.40;;;;;;;;;;4992899;28;20202;-63
2021/12/25 10:50:54;;;;;;;0.40;0.40;;;;;;;;;;4992677;28;20185;-63
2021/12/25 10:53:31;;;;;;;0.40;0.40;;;;;;;;;;4989032;28;20194;-63
2021/12/25 10:56:13;;;;;;;0.40;0.40;;;;;;;;;;4993753;28;20182;-62
2021/12/25 10:58:40;;;;;;;0.40;0.40;;;;;;;;;;4993827;28;20193;-63
2021/12/25 11:01:07;;;;;;;0.40;0.40;;;;;;;;;;4993631;28;20621;-63
2021/12/25 11:03:34;;;;;;;0.40;0.40;;;;;;;;;;4993468;28;20182;-63
2021/12/25 11:06:02;;;;;;;0.50;0.50;;;;;;;;;;4993078;28;20225;-63
2021/12/25 11:08:29;;;;;;;0.50;0.50;;;;;;;;;;4991873;28;20689;-63
2021/12/25 11:10:55;;;;;;;0.40;0.40;;;;;;;;;;4989977;28;20186;-63
2021/12/25 11:13:20;;;;;;;0.40;0.40;;;;;;;;;;4988159;28;20187;-63
2021/12/25 11:15:47;;;;;;;0.40;0.40;;;;;;;;;;4988109;28;20467;-63
2021/12/25 11:18:15;;;;;;;0.40;0.40;;;;;;;;;;4991864;28;20426;-63
2021/12/25 11:20:41;;;;;;;0.40;0.40;;;;;;;;;;4990305;28;20170;-63
2021/12/25 11:23:09;;;;;;;0.50;0.50;;;;;;;;;;4991287;28;20183;-63
2021/12/25 11:25:35;;;;;;;0.40;0.40;;;;;;;;;;4991413;28;20282;-63
2021/12/25 11:28:02;;;;;;;0.40;0.40;;;;;;;;;;4983777;28;20230;-62
2021/12/25 11:30:31;;;;;;;0.50;0.50;;;;;;;;;;5002405;28;20281;-63
2021/12/25 11:32:58;;;;;;;0.40;0.40;;;;;;;;;;5011555;28;20194;-63
2021/12/25 11:35:24;;;;;;;0.40;0.40;;;;;;;;;;4988969;28;20190;-63
2021/12/25 11:37:50;;;;;;;0.50;0.50;;;;;;;;;;4992897;28;20175;-63
2021/12/25 11:40:17;;;;;;;0.50;0.50;;;;;;;;;;4988078;28;20513;-63
2021/12/25 11:42:45;;;;;;;0.40;0.40;;;;;;;;;;5000116;28;20206;-63
2021/12/25 11:45:16;;;;;;;0.40;0.40;;;;;;;;;;4982556;28;20202;-63
2021/12/25 11:47:44;;;;;;;0.40;0.40;;;;;;;;;;4989825;28;20317;-63
2021/12/25 11:50:10;;;;;;;0.40;0.40;;;;;;;;;;4991829;28;20372;-64
2021/12/25 11:52:44;;;;;;;0.40;0.40;;;;;;;;;;4993042;28;20571;-61
2021/12/25 11:55:28;;;;;;;0.40;0.40;;;;;;;;;;4980971;28;20418;-62
2021/12/25 12:00:36;;;;;;;0.50;0.50;;;;;;;;;;4992496;28;20558;-63
2021/12/25 12:03:02;;;;;;;0.50;0.50;;;;;;;;;;4992698;28;20210;-63
2021/12/25 12:05:31;;;;;;;0.40;0.40;;;;;;;;;;4991206;28;20795;-62
2021/12/25 12:08:02;;;;;;;0.50;0.50;;;;;;;;;;4991193;28;20174;-68
2021/12/25 12:10:46;;;;;;;0.40;0.40;;;;;;;;;;4993269;28;20351;-63
2021/12/25 12:13:21;;;;;;;0.40;0.40;;;;;;;;;;4991559;28;20218;-63
2021/12/25 12:15:49;;;;;;;0.40;0.40;;;;;;;;;;4992133;28;20658;-63
2021/12/25 12:18:24;;;;;;;0.40;0.40;;;;;;;;;;4987516;28;20257;-63
2021/12/25 12:20:50;;;;;;;0.40;0.40;;;;;;;;;;4987358;28;20177;-63
2021/12/25 12:23:48;;;;;;;0.50;0.50;;;;;;;;;;4991131;28;20178;-63
2021/12/25 12:26:15;;;;;;;0.40;0.40;;;;;;;;;;4990308;28;20560;-63
2021/12/25 12:28:44;;;;;;;0.40;0.40;;;;;;;;;;4990479;28;20566;-63
2021/12/25 12:31:30;;;;;;;0.40;0.40;;;;;;;;;;4984898;28;20775;-62
2021/12/25 12:33:56;;;;;;;0.50;0.50;;;;;;;;;;4991494;28;20296;-58
2021/12/25 12:36:23;;;;;;;0.40;0.40;;;;;;;;;;4991397;28;20265;-63
2021/12/25 12:38:53;;;;;;;0.40;0.40;;;;;;;;;;4991358;28;20452;-62
2021/12/25 12:41:49;;;;;;;0.50;0.50;;;;;;;;;;4975068;28;20225;-62
2021/12/25 12:44:17;;;;;;;0.40;0.40;;;;;;;;;;4985569;28;20186;-62
2021/12/25 12:46:50;;;;;;;0.40;0.40;;;;;;;;;;4981685;28;20185;-61
2021/12/25 12:49:18;;;;;;;0.50;0.50;;;;;;;;;;5001210;28;20740;-62
2021/12/25 12:51:44;;;;;;;0.40;0.40;;;;;;;;;;4991382;28;20190;-61
2021/12/25 12:54:10;;;;;;;0.50;0.50;;;;;;;;;;4992341;28;20180;-62
2021/12/25 12:56:56;;;;;;;0.40;0.40;;;;;;;;;;4993276;28;20425;-63
2021/12/25 12:59:22;;;;;;;0.40;0.40;;;;;;;;;;4991649;28;20182;-63
2021/12/25 13:01:48;;;;;;;0.43;0.43;;;;;;;;;;4991618;28;20212;-63
2021/12/25 13:04:14;;;;;;;0.40;0.40;;;;;;;;;;4991152;28;20977;-62
2021/12/25 13:06:42;;;;;;;0.40;0.40;;;;;;;;;;4991300;28;20186;-63
2021/12/25 13:09:09;;;;;;;0.40;0.40;;;;;;;;;;4985094;28;20474;-63
2021/12/25 13:11:52;;;;;;;0.40;0.40;;;;;;;;;;4982521;28;20614;-62
2021/12/25 13:14:18;;;;;;;0.40;0.40;;;;;;;;;;4982420;28;20554;-62
2021/12/25 13:16:44;;;;;;;0.40;0.40;;;;;;;;;;4985721;28;20194;-62
2021/12/25 13:19:10;;;;;;;0.40;0.40;;;;;;;;;;4990567;28;20445;-63
2021/12/25 13:21:37;;;;;;;0.40;0.40;;;;;;;;;;4987951;28;20217;-63
2021/12/25 13:24:06;;;;;;;0.50;0.50;;;;;;;;;;4986993;28;20205;-63
2021/12/25 13:26:35;;;;;;;0.40;0.40;;;;;;;;;;4980871;28;20535;-62
2021/12/25 13:29:02;;;;;;;0.50;0.50;;;;;;;;;;4991458;28;20204;-63
2021/12/25 13:31:29;;;;;;;0.40;0.40;;;;;;;;;;4992060;28;20213;-63
2021/12/25 13:33:57;;;;;;;0.30;0.30;;;;;;;;;;4985662;28;20221;-62
2021/12/25 13:36:28;;;;;;;0.50;0.50;;;;;;;;;;4995440;28;20178;-62
2021/12/25 13:38:54;;;;;;;0.40;0.40;;;;;;;;;;4995003;28;20178;-63
2021/12/25 13:41:49;;;;;;;0.40;0.40;;;;;;;;;;4994943;28;20685;-62
2021/12/25 13:44:34;;;;;;;0.40;0.40;;;;;;;;;;4982704;28;20487;-63
2021/12/25 13:47:21;;;;;;;0.40;0.40;;;;;;;;;;4992094;28;20190;-63
2021/12/25 13:49:47;;;;;;;0.50;0.50;;;;;;;;;;4986371;28;20199;-62
2021/12/25 13:52:22;;;;;;;0.40;0.40;;;;;;;;;;4993549;28;20216;-63
2021/12/25 13:54:49;;;;;;;0.40;0.40;;;;;;;;;;4993642;28;20452;-63
2021/12/25 13:57:17;;;;;;;0.40;0.40;;;;;;;;;;4991077;28;20181;-62
2021/12/25 13:59:48;;;;;;;0.40;0.40;;;;;;;;;;4995243;28;20186;-62
2021/12/25 14:02:15;;;;;;;0.40;0.40;;;;;;;;;;4993556;28;20213;-62
2021/12/25 14:04:42;;;;;;;0.40;0.40;;;;;;;;;;4992017;28;20242;-62
2021/12/25 14:07:09;;;;;;;0.40;0.40;;;;;;;;;;4994029;28;20178;-62
2021/12/25 14:09:36;;;;;;;0.40;0.40;;;;;;;;;;4993690;28;20316;-63
2021/12/25 14:12:03;;;;;;;0.50;0.50;;;;;;;;;;5020544;23;20293;-63
2021/12/25 14:14:29;;;;;;;0.50;0.50;;;;;;;;;;5014434;28;20243;-63
2021/12/25 14:16:57;;;;;;;0.40;0.40;;;;;;;;;;5016365;28;20185;-64
2021/12/25 14:19:27;;;;;;;0.40;0.40;;;;;;;;;;5019864;28;20243;-64
2021/12/25 14:21:54;;;;;;;0.40;0.40;;;;;;;;;;5023058;28;20564;-64
2021/12/25 14:24:20;;;;;;;0.40;0.40;;;;;;;;;;5011102;28;21571;-64
2021/12/25 14:26:47;;;;;;;0.40;0.40;;;;;;;;;;5012893;28;20201;-64
2021/12/25 14:29:23;;;;;;;0.40;0.40;;;;;;;;;;5012442;28;20200;-64
2021/12/25 14:31:50;;;;;;;0.40;0.40;;;;;;;;;;5008040;28;20197;-64
2021/12/25 14:34:16;;;;;;;0.40;0.40;;;;;;;;;;5009958;28;20186;-64
2021/12/25 14:36:42;;;;;;;0.40;0.40;;;;;;;;;;5015894;28;20213;-64
2021/12/25 14:39:13;;;;;;;0.40;0.40;;;;;;;;;;5013116;28;20185;-64
2021/12/25 14:41:39;;;;;;;0.40;0.40;;;;;;;;;;5012809;28;20723;-64
2021/12/25 14:44:19;;;;;;;0.50;0.50;;;;;;;;;;5012150;28;20192;-63
2021/12/25 14:46:46;;;;;;;0.40;0.40;;;;;;;;;;5018928;28;20182;-63
2021/12/25 14:49:12;;;;;;;0.40;0.40;;;;;;;;;;5012946;28;20208;-63
2021/12/25 14:51:38;;;;;;;0.40;0.40;;;;;;;;;;5010668;28;20201;-63
2021/12/25 14:54:05;;;;;;;0.40;0.40;;;;;;;;;;5014725;28;20169;-63
2021/12/25 14:56:32;;;;;;;0.40;0.40;;;;;;;;;;5010238;28;20185;-64
2021/12/25 14:59:00;;;;;;;0.40;0.40;;;;;;;;;;5013072;28;20211;-64
2021/12/25 15:01:28;;;;;;;0.50;0.50;;;;;;;;;;5009039;28;20185;-63
2021/12/25 15:04:05;;;;;;;0.40;0.40;;;;;;;;;;5008074;28;20209;-64
2021/12/25 15:06:31;;;;;;;0.40;0.40;;;;;;;;;;5014152;28;20264;-64
2021/12/25 15:09:08;;;;;;;0.40;0.40;;;;;;;;;;5011187;28;20606;-64
2021/12/25 15:11:36;;;;;;;0.40;0.40;;;;;;;;;;5001849;28;20197;-64
2021/12/25 15:14:04;;;;;;;0.40;0.40;;;;;;;;;;5013245;28;20209;-63
2021/12/25 15:16:38;;;;;;;0.40;0.40;;;;;;;;;;5009470;28;20177;-64
2021/12/25 15:19:04;;;;;;;0.40;0.40;;;;;;;;;;5014888;28;20181;-64
2021/12/25 15:21:30;;;;;;;0.50;0.50;;;;;;;;;;5007554;28;20273;-62
2021/12/25 15:24:10;;;;;;;0.50;0.50;;;;;;;;;;5013955;28;20209;-63
2021/12/25 15:26:40;;;;;;;0.40;0.40;;;;;;;;;;5020063;28;20215;-63
2021/12/25 15:29:06;;;;;;;0.40;0.40;;;;;;;;;;5005873;28;21941;-63
2021/12/25 15:31:33;;;;;;;0.40;0.40;;;;;;;;;;5010204;28;20601;-63
2021/12/25 15:34:00;;;;;;;0.40;0.40;;;;;;;;;;5010779;28;20268;-63
2021/12/25 15:36:28;;;;;;;0.40;0.40;;;;;;;;;;5010149;28;20668;-63
2021/12/25 15:38:55;;;;;;;0.40;0.40;;;;;;;;;;5006772;28;20276;-63
2021/12/25 15:41:21;;;;;;;0.40;0.40;;;;;;;;;;5008970;28;20817;-64
2021/12/25 15:43:47;;;;;;;0.40;0.40;;;;;;;;;;5008993;28;20209;-63
2021/12/25 15:46:14;;;;;;;0.40;0.40;;;;;;;;;;5017982;28;20436;-63
2021/12/25 15:48:41;;;;;;;0.40;0.40;;;;;;;;;;5011797;28;20205;-63
2021/12/25 15:51:08;;;;;;;0.40;0.40;;;;;;;;;;5011566;28;20189;-63
2021/12/25 15:53:34;;;;;;;0.40;0.40;;;;;;;;;;5010187;28;20233;-62
2021/12/25 15:56:00;;;;;;;0.40;0.40;;;;;;;;;;5012661;28;20189;-62
2021/12/25 15:58:27;;;;;;;0.40;0.40;;;;;;;;;;5013156;28;20185;-62
2021/12/25 16:00:53;;;;;;;0.40;0.40;;;;;;;;;;5011696;28;20185;-62
2021/12/25 16:03:19;;;;;;;0.40;0.40;;;;;;;;;;5010576;28;20595;-63
2021/12/25 16:05:46;;;;;;;0.40;0.40;;;;;;;;;;5017614;28;20178;-63
2021/12/25 16:08:13;;;;;;;0.40;0.40;;;;;;;;;;5020750;28;20177;-63
2021/12/25 16:10:40;;;;;;;0.40;0.40;;;;;;;;;;5012688;28;20186;-62